createdAt,value
2022-08-22T00:01:38.531Z,101024.19
2022-08-22T00:03:00.231Z,101002.81
2022-08-22T00:04:14.365Z,101023.81
2022-08-22T00:06:40.641Z,101030.91
2022-08-22T00:09:29.310Z,101024.97
2022-08-22T00:12:01.446Z,101025.41
2022-08-22T00:14:41.385Z,101020.59
2022-08-22T00:17:27.119Z,101027.75
2022-08-22T00:20:08.942Z,101025.75
2022-08-22T00:22:40.495Z,101024.53
2022-08-22T00:25:25.772Z,101032.03
2022-08-22T00:28:07.978Z,101038.28
2022-08-22T00:30:37.859Z,101041.41
2022-08-22T00:33:13.433Z,101037.06
2022-08-22T00:35:45.005Z,101029.53
2022-08-22T00:38:18.275Z,101034.69
2022-08-22T00:40:53.640Z,101038.72
2022-08-22T00:43:29.092Z,101035.94
2022-08-22T00:46:14.153Z,101041.97
2022-08-22T00:48:54.638Z,101048.28
2022-08-22T00:51:26.979Z,101046.63
2022-08-22T00:54:04.405Z,101047.03
2022-08-22T00:56:36.188Z,101042.63
2022-08-22T00:59:23.783Z,101048.59
2022-08-22T01:01:57.300Z,101048.19
2022-08-22T01:04:31.684Z,101049.75
2022-08-22T01:07:07.970Z,101041.84
2022-08-22T01:09:43.084Z,101041.34
2022-08-22T01:12:21.479Z,101036.97
2022-08-22T01:14:53.336Z,101039.31
2022-08-22T01:17:22.784Z,101042.53
2022-08-22T01:19:52.691Z,101040.81
2022-08-22T01:22:18.964Z,101047.78
2022-08-22T01:25:08.235Z,101046.63
2022-08-22T01:27:44.211Z,101051.31
2022-08-22T01:30:40.243Z,101056.47
2022-08-22T01:33:32.587Z,101050.97
2022-08-22T01:36:10.827Z,101057.69
2022-08-22T01:38:43.466Z,101054.47
2022-08-22T01:41:17.076Z,101059.19
2022-08-22T01:43:59.583Z,101052.03
2022-08-22T01:46:45.988Z,101056.59
2022-08-22T01:49:18.300Z,101053.34
2022-08-22T01:52:03.260Z,101056.72
2022-08-22T01:54:49.549Z,101055.16
2022-08-22T01:57:16.815Z,101063.44
2022-08-22T01:59:45.933Z,101063.72
2022-08-22T02:02:18.271Z,101079.81
2022-08-22T02:05:08.579Z,101070.81
2022-08-22T02:07:41.761Z,101067.31
2022-08-22T02:10:08.051Z,101063.88
2022-08-22T02:12:49.405Z,101067.19
2022-08-22T02:15:23.070Z,101061.31
2022-08-22T02:18:04.577Z,101067.66
2022-08-22T02:20:49.649Z,101062.97
2022-08-22T02:23:25.027Z,101062.59
2022-08-22T02:25:54.528Z,101057.44
2022-08-22T02:28:39.184Z,101065.78
2022-08-22T02:31:34.593Z,101059.88
2022-08-22T02:34:03.241Z,101063.81
2022-08-22T02:36:32.577Z,101055.47
2022-08-22T02:39:07.981Z,101064.94
2022-08-22T02:41:44.007Z,101059.41
2022-08-22T02:44:17.137Z,101058.16
2022-08-22T02:46:53.389Z,101050.25
2022-08-22T02:49:19.928Z,101053.47
2022-08-22T02:51:51.309Z,101053.47
2022-08-22T02:54:30.267Z,101051.47
2022-08-22T02:57:06.475Z,101060.91
2022-08-22T02:59:58.682Z,101057.34
2022-08-22T03:02:25.239Z,101054.97
2022-08-22T03:04:54.311Z,101052.59
2022-08-22T03:07:20.587Z,101053.59
2022-08-22T03:09:46.863Z,101054.25
2022-08-22T03:12:21.507Z,101055.63
2022-08-22T03:14:55.359Z,101058.78
2022-08-22T03:17:33.374Z,101064.28
2022-08-22T03:20:10.241Z,101053.59
2022-08-22T03:22:53.754Z,101065.47
2022-08-22T03:25:26.541Z,101056.69
2022-08-22T03:28:02.018Z,101060.16
2022-08-22T03:30:33.137Z,101053.44
2022-08-22T03:33:19.752Z,101060.06
2022-08-22T03:35:46.047Z,101057.25
2022-08-22T03:38:40.459Z,101060.38
2022-08-22T03:41:12.599Z,101057.91
2022-08-22T03:43:38.891Z,101056.38
2022-08-22T03:46:11.223Z,101054.00
2022-08-22T03:48:40.577Z,101059.16
2022-08-22T03:51:26.403Z,101058.53
2022-08-22T03:54:11.576Z,101061.72
2022-08-22T03:56:47.263Z,101057.41
2022-08-22T03:59:29.085Z,101061.72
2022-08-22T04:02:31.521Z,101059.72
2022-08-22T04:05:15.134Z,101065.66
2022-08-22T04:08:01.774Z,101056.59
2022-08-22T04:10:38.442Z,101068.75
2022-08-22T04:13:24.842Z,101064.72
2022-08-22T04:16:08.106Z,101073.78
2022-08-22T04:18:59.486Z,101076.53
2022-08-22T04:21:44.362Z,101080.50
2022-08-22T04:24:22.255Z,101091.53
2022-08-22T04:26:56.201Z,101090.25
2022-08-22T04:29:25.510Z,101089.53
2022-08-22T04:32:05.855Z,101089.53
2022-08-22T04:34:38.061Z,101098.97
2022-08-22T04:37:09.833Z,101094.97
2022-08-22T04:39:46.473Z,101097.72
2022-08-22T04:42:36.716Z,101097.72
2022-08-22T04:45:13.160Z,101105.59
2022-08-22T04:48:00.798Z,101105.16
2022-08-22T04:50:43.798Z,101119.41
2022-08-22T04:53:28.493Z,101105.59
2022-08-22T04:56:07.229Z,101110.34
2022-08-22T04:59:03.689Z,101105.50
2022-08-22T05:01:38.958Z,101107.16
2022-08-22T05:04:10.465Z,101110.88
2022-08-22T05:06:40.019Z,101109.25
2022-08-22T05:09:14.157Z,101111.66
2022-08-22T05:11:42.887Z,101109.97
2022-08-22T05:14:15.949Z,101113.66
2022-08-22T05:16:43.918Z,101115.13
2022-08-22T05:19:28.573Z,101115.56
2022-08-22T05:21:58.310Z,101119.94
2022-08-22T05:24:31.770Z,101119.19
2022-08-22T05:27:01.542Z,101119.63
2022-08-22T05:29:29.759Z,101121.69
2022-08-22T05:32:04.492Z,101124.50
2022-08-22T05:34:37.746Z,101116.53
2022-08-22T05:37:25.634Z,101116.31
2022-08-22T05:39:57.510Z,101125.03
2022-08-22T05:42:33.121Z,101120.78
2022-08-22T05:45:04.649Z,101118.97
2022-08-22T05:47:36.512Z,101126.94
2022-08-22T05:50:07.238Z,101118.00
2022-08-22T05:52:36.665Z,101115.66
2022-08-22T05:55:13.961Z,101120.88
2022-08-22T05:57:42.404Z,101118.16
2022-08-22T06:00:16.587Z,101125.03
2022-08-22T06:02:45.418Z,101123.91
2022-08-22T06:05:12.341Z,101129.94
2022-08-22T06:07:47.727Z,101121.66
2022-08-22T06:10:31.020Z,101128.84
2022-08-22T06:13:11.567Z,101127.69
2022-08-22T06:15:56.773Z,101124.09
2022-08-22T06:18:24.885Z,101134.88
2022-08-22T06:20:56.768Z,101131.78
2022-08-22T06:23:31.077Z,101133.78
2022-08-22T06:25:59.070Z,101139.34
2022-08-22T06:28:27.605Z,101133.78
2022-08-22T06:30:55.682Z,101146.13
2022-08-22T06:33:29.057Z,101142.53
2022-08-22T06:36:20.475Z,101140.63
2022-08-22T06:38:56.216Z,101142.19
2022-08-22T06:41:25.513Z,101141.41
2022-08-22T06:43:52.715Z,101143.00
2022-08-22T06:46:20.307Z,101141.84
2022-08-22T06:48:47.820Z,101145.88
2022-08-22T06:51:16.451Z,101141.50
2022-08-22T06:53:47.953Z,101139.13
2022-08-22T06:56:20.172Z,101139.59
2022-08-22T06:58:48.674Z,101147.53
2022-08-22T07:01:18.105Z,101139.28
2022-08-22T07:03:51.238Z,101138.03
2022-08-22T07:06:33.361Z,101146.78
2022-08-22T07:09:00.025Z,101146.81
2022-08-22T07:11:37.963Z,101158.31
2022-08-22T07:14:06.372Z,101157.53
2022-08-22T07:16:35.554Z,101155.19
2022-08-22T07:19:03.884Z,101154.81
2022-08-22T07:21:41.263Z,101163.94
2022-08-22T07:24:08.926Z,101160.81
2022-08-22T07:26:54.372Z,101165.97
2022-08-22T07:29:28.227Z,101174.28
2022-08-22T07:32:04.066Z,101176.72
2022-08-22T07:34:39.367Z,101179.53
2022-08-22T07:37:11.940Z,101180.34
2022-08-22T07:39:42.892Z,101187.09
2022-08-22T07:42:10.364Z,101189.88
2022-08-22T07:44:55.399Z,101187.09
2022-08-22T07:47:26.689Z,101189.47
2022-08-22T07:49:55.311Z,101190.69
2022-08-22T07:52:22.191Z,101201.00
2022-08-22T07:54:53.416Z,101202.19
2022-08-22T07:57:31.493Z,101198.63
2022-08-22T07:59:59.850Z,101205.38
2022-08-22T08:02:26.467Z,101204.59
2022-08-22T08:04:53.869Z,101203.81
2022-08-22T08:07:21.876Z,101205.00
2022-08-22T08:09:53.406Z,101207.38
2022-08-22T08:12:22.868Z,101206.19
2022-08-22T08:14:51.772Z,101218.47
2022-08-22T08:17:26.877Z,101220.03
2022-08-22T08:19:56.398Z,101216.09
2022-08-22T08:22:24.486Z,101218.84
2022-08-22T08:24:53.093Z,101229.16
2022-08-22T08:27:50.187Z,101230.78
2022-08-22T08:30:21.992Z,101227.97
2022-08-22T08:32:51.134Z,101228.34
2022-08-22T08:35:25.434Z,101238.25
2022-08-22T08:38:12.145Z,101231.91
2022-08-22T08:40:50.637Z,101228.31
2022-08-22T08:43:34.915Z,101227.56
2022-08-22T08:46:01.229Z,101233.88
2022-08-22T08:48:47.173Z,101232.25
2022-08-22T08:51:34.511Z,101234.63
2022-08-22T08:54:27.340Z,101243.38
2022-08-22T08:57:03.065Z,101243.31
2022-08-22T08:59:44.066Z,101242.50
2022-08-22T09:02:23.515Z,101246.50
2022-08-22T09:04:50.123Z,101245.69
2022-08-22T09:07:27.516Z,101238.50
2022-08-22T09:10:16.619Z,101248.78
2022-08-22T09:12:55.995Z,101255.53
2022-08-22T09:15:41.789Z,101254.34
2022-08-22T09:18:08.544Z,101245.94
2022-08-22T09:20:46.313Z,101251.88
2022-08-22T09:23:31.680Z,101256.66
2022-08-22T09:26:10.245Z,101248.28
2022-08-22T09:28:41.659Z,101251.03
2022-08-22T09:31:33.056Z,101258.19
2022-08-22T09:34:13.409Z,101254.97
2022-08-22T09:36:50.529Z,101253.72
2022-08-22T09:39:23.254Z,101252.09
2022-08-22T09:42:10.380Z,101248.47
2022-08-22T09:44:41.295Z,101246.50
2022-08-22T09:47:10.182Z,101255.19
2022-08-22T09:49:42.224Z,101262.34
2022-08-22T09:52:33.742Z,101267.53
2022-08-22T09:55:11.765Z,101258.75
2022-08-22T09:57:50.459Z,101257.53
2022-08-22T10:00:33.098Z,101267.50
2022-08-22T10:03:19.435Z,101265.47
2022-08-22T10:05:54.926Z,101258.75
2022-08-22T10:08:26.526Z,101265.09
2022-08-22T10:11:13.219Z,101257.53
2022-08-22T10:14:01.594Z,101263.09
2022-08-22T10:16:43.522Z,101269.09
2022-08-22T10:19:30.087Z,101270.66
2022-08-22T10:22:05.462Z,101267.53
2022-08-22T10:24:44.104Z,101264.34
2022-08-22T10:27:16.793Z,101279.38
2022-08-22T10:29:52.204Z,101276.66
2022-08-22T10:32:28.199Z,101272.28
2022-08-22T10:34:57.630Z,101274.72
2022-08-22T10:37:39.487Z,101270.75
2022-08-22T10:40:06.194Z,101273.53
2022-08-22T10:42:42.334Z,101277.13
2022-08-22T10:45:11.002Z,101275.13
2022-08-22T10:47:40.850Z,101276.34
2022-08-22T10:50:18.291Z,101272.38
2022-08-22T10:52:49.101Z,101258.78
2022-08-22T10:55:19.172Z,101270.66
2022-08-22T10:58:05.020Z,101267.94
2022-08-22T11:00:50.498Z,101271.84
2022-08-22T11:03:24.928Z,101270.66
2022-08-22T11:05:53.134Z,101274.25
2022-08-22T11:08:39.487Z,101265.91
2022-08-22T11:11:32.764Z,101270.28
2022-08-22T11:14:02.926Z,101267.44
2022-08-22T11:16:36.494Z,101274.63
2022-08-22T11:19:22.753Z,101274.22
2022-08-22T11:22:03.998Z,101274.59
2022-08-22T11:24:35.427Z,101273.38
2022-08-22T11:27:37.989Z,101269.03
2022-08-22T11:30:06.341Z,101277.72
2022-08-22T11:32:32.625Z,101266.16
2022-08-22T11:35:04.380Z,101260.16
2022-08-22T11:37:54.910Z,101266.56
2022-08-22T11:40:27.945Z,101256.59
2022-08-22T11:42:54.440Z,101257.38
2022-08-22T11:45:25.000Z,101266.53
2022-08-22T11:47:56.808Z,101250.59
2022-08-22T11:50:42.450Z,101247.84
2022-08-22T11:53:37.498Z,101251.41
2022-08-22T11:56:14.847Z,101257.69
2022-08-22T11:58:45.657Z,101255.41
2022-08-22T12:01:38.364Z,101259.31
2022-08-22T12:04:16.790Z,101257.78
2022-08-22T12:06:56.657Z,101260.56
2022-08-22T12:09:25.941Z,101256.97
2022-08-22T12:11:58.439Z,101255.41
2022-08-22T12:14:32.379Z,101245.06
2022-08-22T12:17:05.834Z,101247.28
2022-08-22T12:19:32.999Z,101238.66
2022-08-22T12:22:14.687Z,101242.66
2022-08-22T12:24:44.180Z,101242.25
2022-08-22T12:27:13.839Z,101241.47
2022-08-22T12:29:54.770Z,101232.69
2022-08-22T12:32:48.968Z,101226.31
2022-08-22T12:35:27.150Z,101233.09
2022-08-22T12:38:02.089Z,101221.84
2022-08-22T12:40:48.055Z,101218.63
2022-08-22T12:43:18.872Z,101216.31
2022-08-22T12:45:51.074Z,101222.53
2022-08-22T12:48:52.096Z,101218.94
2022-08-22T12:51:24.563Z,101220.13
2022-08-22T12:54:06.149Z,101224.59
2022-08-22T12:56:34.815Z,101207.84
2022-08-22T12:59:20.256Z,101203.00
2022-08-22T13:01:48.213Z,101208.22
2022-08-22T13:04:29.681Z,101212.56
2022-08-22T13:07:17.965Z,101208.06
2022-08-22T13:09:54.499Z,101207.38
2022-08-22T13:12:27.690Z,101210.50
2022-08-22T13:14:56.697Z,101198.59
2022-08-22T13:17:25.307Z,101202.94
2022-08-22T13:20:04.739Z,101206.13
2022-08-22T13:22:32.896Z,101199.31
2022-08-22T13:25:05.361Z,101197.38
2022-08-22T13:27:41.059Z,101197.28
2022-08-22T13:30:23.967Z,101188.19
2022-08-22T13:32:52.967Z,101189.00
2022-08-22T13:35:24.634Z,101188.16
2022-08-22T13:37:55.424Z,101189.75
2022-08-22T13:40:28.133Z,101195.63
2022-08-22T13:43:15.629Z,101182.16
2022-08-22T13:45:50.334Z,101180.97
2022-08-22T13:48:16.733Z,101182.19
2022-08-22T13:51:01.454Z,101187.75
2022-08-22T13:53:28.413Z,101189.00
2022-08-22T13:56:15.470Z,101188.59
2022-08-22T13:58:47.650Z,101189.00
2022-08-22T14:01:32.832Z,101187.41
2022-08-22T14:04:28.985Z,101190.63
2022-08-22T14:07:04.462Z,101183.47
2022-08-22T14:09:40.215Z,101182.19
2022-08-22T14:12:11.997Z,101172.69
2022-08-22T14:14:40.367Z,101169.53
2022-08-22T14:17:07.874Z,101168.34
2022-08-22T14:19:48.999Z,101171.09
2022-08-22T14:22:32.020Z,101173.88
2022-08-22T14:25:02.622Z,101171.50
2022-08-22T14:27:38.462Z,101183.41
2022-08-22T14:30:06.610Z,101179.47
2022-08-22T14:32:45.852Z,101180.88
2022-08-22T14:35:21.510Z,101169.81
2022-08-22T14:37:54.652Z,101173.03
2022-08-22T14:40:23.135Z,101172.97
2022-08-22T14:42:52.963Z,101184.91
2022-08-22T14:45:19.333Z,101187.66
2022-08-22T14:48:30.555Z,101179.28
2022-08-22T14:50:49.406Z,101180.84
2022-08-22T14:53:19.277Z,101177.25
2022-08-22T14:56:04.194Z,101191.09
2022-08-22T14:58:36.202Z,101177.59
2022-08-22T15:01:13.939Z,101186.75
2022-08-22T15:03:42.495Z,101188.38
2022-08-22T15:06:13.560Z,101182.38
2022-08-22T15:08:47.905Z,101182.81
2022-08-22T15:11:19.462Z,101190.84
2022-08-22T15:13:51.705Z,101188.47
2022-08-22T15:16:21.742Z,101190.88
2022-08-22T15:18:51.464Z,101184.91
2022-08-22T15:21:24.437Z,101179.03
2022-08-22T15:23:53.496Z,101185.38
2022-08-22T15:26:27.998Z,101186.59
2022-08-22T15:29:07.233Z,101181.44
2022-08-22T15:31:33.900Z,101175.84
2022-08-22T15:34:11.266Z,101174.31
2022-08-22T15:36:57.563Z,101178.66
2022-08-22T15:39:29.401Z,101180.31
2022-08-22T15:41:56.460Z,101177.13
2022-08-22T15:44:32.283Z,101175.94
2022-08-22T15:46:59.458Z,101181.97
2022-08-22T15:49:29.077Z,101176.78
2022-08-22T15:52:01.731Z,101176.81
2022-08-22T15:54:31.360Z,101176.06
2022-08-22T15:57:06.833Z,101180.06
2022-08-22T15:59:54.166Z,101188.03
2022-08-22T16:02:24.071Z,101174.06
2022-08-22T16:04:54.942Z,101169.72
2022-08-22T16:07:26.107Z,101166.16
2022-08-22T16:09:54.149Z,101168.16
2022-08-22T16:12:26.361Z,101168.91
2022-08-22T16:14:53.307Z,101161.31
2022-08-22T16:17:25.686Z,101166.06
2022-08-22T16:20:19.791Z,101156.94
2022-08-22T16:22:58.632Z,101154.13
2022-08-22T16:25:43.743Z,101150.94
2022-08-22T16:28:36.180Z,101148.16
2022-08-22T16:31:27.459Z,101156.53
2022-08-22T16:33:56.228Z,101144.59
2022-08-22T16:36:38.822Z,101154.59
2022-08-22T16:39:13.601Z,101153.41
2022-08-22T16:41:42.546Z,101158.22
2022-08-22T16:44:13.562Z,101159.00
2022-08-22T16:46:42.926Z,101153.03
2022-08-22T16:49:10.498Z,101156.69
2022-08-22T16:51:56.810Z,101159.94
2022-08-22T16:54:41.838Z,101155.97
2022-08-22T16:57:27.116Z,101151.63
2022-08-22T17:00:01.293Z,101151.25
2022-08-22T17:02:42.869Z,101144.94
2022-08-22T17:05:15.453Z,101150.50
2022-08-22T17:07:53.435Z,101153.75
2022-08-22T17:10:43.228Z,101153.78
2022-08-22T17:13:13.285Z,101149.47
2022-08-22T17:15:52.459Z,101144.31
2022-08-22T17:18:25.079Z,101158.25
2022-08-22T17:21:11.495Z,101151.94
2022-08-22T17:23:41.026Z,101160.31
2022-08-22T17:26:17.580Z,101149.56
2022-08-22T17:28:48.111Z,101160.72
2022-08-22T17:31:27.236Z,101149.66
2022-08-22T17:33:59.807Z,101145.28
2022-08-22T17:36:49.645Z,101154.44
2022-08-22T17:39:15.949Z,101155.25
2022-08-22T17:42:00.428Z,101147.72
2022-08-22T17:44:27.246Z,101158.47
2022-08-22T17:46:54.146Z,101161.25
2022-08-22T17:49:38.703Z,101169.25
2022-08-22T17:52:08.211Z,101164.88
2022-08-22T17:54:34.527Z,101178.28
2022-08-22T17:57:19.886Z,101175.47
2022-08-22T18:00:11.229Z,101181.81
2022-08-22T18:02:40.710Z,101183.41
2022-08-22T18:05:42.554Z,101186.63
2022-08-22T18:08:37.314Z,101190.63
2022-08-22T18:11:04.566Z,101197.38
2022-08-22T18:13:36.218Z,101198.16
2022-08-22T18:16:11.375Z,101202.50
2022-08-22T18:18:40.297Z,101204.53
2022-08-22T18:21:08.649Z,101204.09
2022-08-22T18:23:46.087Z,101208.88
2022-08-22T18:26:24.044Z,101199.38
2022-08-22T18:28:57.170Z,101202.91
2022-08-22T18:31:23.550Z,101206.91
2022-08-22T18:33:52.238Z,101210.09
2022-08-22T18:36:22.620Z,101203.31
2022-08-22T18:38:55.457Z,101211.25
2022-08-22T18:41:27.311Z,101208.78
2022-08-22T18:43:54.454Z,101226.28
2022-08-22T18:46:32.797Z,101214.88
2022-08-22T18:49:15.107Z,101226.81
2022-08-22T18:51:43.022Z,101220.47
2022-08-22T18:54:11.085Z,101228.81
2022-08-22T18:57:09.555Z,101221.72
2022-08-22T18:59:35.829Z,101220.94
2022-08-22T19:02:17.406Z,101229.63
2022-08-22T19:04:55.934Z,101228.47
2022-08-22T19:07:32.742Z,101236.91
2022-08-22T19:10:17.728Z,101231.69
2022-08-22T19:12:56.870Z,101237.66
2022-08-22T19:15:38.607Z,101236.41
2022-08-22T19:18:04.956Z,101232.47
2022-08-22T19:20:52.138Z,101230.16
2022-08-22T19:23:45.990Z,101230.19
2022-08-22T19:26:29.639Z,101230.63
2022-08-22T19:29:08.754Z,101231.00
2022-08-22T19:31:39.856Z,101234.16
2022-08-22T19:34:15.190Z,101235.72
2022-08-22T19:36:42.173Z,101240.53
2022-08-22T19:39:09.763Z,101233.81
2022-08-22T19:41:49.214Z,101252.00
2022-08-22T19:44:22.005Z,101243.28
2022-08-22T19:47:00.581Z,101246.84
2022-08-22T19:49:28.735Z,101246.06
2022-08-22T19:52:12.026Z,101240.09
2022-08-22T19:55:02.180Z,101251.25
2022-08-22T19:57:41.716Z,101252.81
2022-08-22T20:00:08.311Z,101248.06
2022-08-22T20:02:53.298Z,101250.88
2022-08-22T20:05:25.493Z,101253.63
2022-08-22T20:07:52.390Z,101258.03
2022-08-22T20:10:25.174Z,101260.81
2022-08-22T20:12:57.475Z,101256.06
2022-08-22T20:15:25.815Z,101258.84
2022-08-22T20:20:55.691Z,101256.50
2022-08-22T20:23:28.619Z,101253.75
2022-08-22T20:25:55.961Z,101252.16
2022-08-22T20:28:29.555Z,101253.34
2022-08-22T20:31:00.529Z,101251.00
2022-08-22T20:33:31.317Z,101252.19
2022-08-22T20:35:59.545Z,101253.38
2022-08-22T20:38:38.286Z,101250.19
2022-08-22T20:41:24.149Z,101244.28
2022-08-22T20:43:53.136Z,101251.41
2022-08-22T20:46:38.024Z,101251.44
2022-08-22T20:49:16.290Z,101251.03
2022-08-22T20:51:50.466Z,101251.47
2022-08-22T20:54:18.520Z,101253.81
2022-08-22T20:56:51.640Z,101249.47
2022-08-22T20:59:30.752Z,101245.50
2022-08-22T21:02:02.509Z,101237.56
2022-08-22T21:04:34.250Z,101237.16
2022-08-22T21:07:01.451Z,101247.06
2022-08-22T21:09:47.376Z,101243.13
2022-08-22T21:12:13.884Z,101241.16
2022-08-22T21:14:45.965Z,101237.16
2022-08-22T21:17:23.906Z,101241.91
2022-08-22T21:19:50.604Z,101243.50
2022-08-22T21:22:24.535Z,101243.91
2022-08-22T21:24:54.557Z,101236.75
2022-08-22T21:27:26.147Z,101239.13
2022-08-22T21:29:52.731Z,101238.34
2022-08-22T21:32:37.533Z,101246.69
2022-08-22T21:35:04.951Z,101245.09
2022-08-22T21:37:39.816Z,101237.97
2022-08-22T21:40:15.157Z,101240.72
2022-08-22T21:42:43.597Z,101237.16
2022-08-22T21:45:12.763Z,101241.91
2022-08-22T21:47:40.530Z,101245.50
2022-08-22T21:50:12.605Z,101245.50
2022-08-22T21:52:41.275Z,101241.13
2022-08-22T21:55:23.321Z,101243.91
2022-08-22T21:58:04.774Z,101241.53
2022-08-22T22:00:40.192Z,101240.72
2022-08-22T22:03:15.868Z,101242.34
2022-08-22T22:05:42.338Z,101239.56
2022-08-22T22:08:11.171Z,101240.72
2022-08-22T22:10:38.704Z,101245.91
2022-08-22T22:13:05.088Z,101241.94
2022-08-22T22:15:34.438Z,101244.31
2022-08-22T22:18:00.993Z,101249.84
2022-08-22T22:20:28.076Z,101238.31
2022-08-22T22:22:54.539Z,101246.25
2022-08-22T22:25:40.188Z,101245.84
2022-08-22T22:28:13.518Z,101249.03
2022-08-22T22:30:40.337Z,101250.63
2022-08-22T22:33:06.812Z,101245.47
2022-08-22T22:35:33.252Z,101248.22
2022-08-22T22:37:59.722Z,101248.22
2022-08-22T22:40:26.209Z,101246.63
2022-08-22T22:42:52.560Z,101246.63
2022-08-22T22:45:18.901Z,101241.09
2022-08-22T22:47:45.289Z,101242.66
2022-08-22T22:50:11.694Z,101235.16
2022-08-22T22:52:38.501Z,101238.31
2022-08-22T22:55:07.749Z,101233.16
2022-08-22T22:57:42.481Z,101234.72
2022-08-22T23:00:10.740Z,101228.78
2022-08-22T23:02:37.077Z,101231.56
2022-08-22T23:05:03.671Z,101232.34
2022-08-22T23:07:29.984Z,101226.00
2022-08-22T23:10:01.613Z,101229.16
2022-08-22T23:12:28.644Z,101221.25
2022-08-22T23:14:55.077Z,101225.97
2022-08-22T23:17:21.437Z,101224.81
2022-08-22T23:19:47.900Z,101224.81
2022-08-22T23:22:14.362Z,101222.03
2022-08-22T23:24:40.740Z,101224.81
2022-08-22T23:27:07.957Z,101207.34
2022-08-22T23:29:34.430Z,101210.53
2022-08-22T23:32:02.125Z,101204.97
2022-08-22T23:34:29.936Z,101210.94
2022-08-22T23:36:58.149Z,101214.13
2022-08-22T23:39:25.858Z,101213.69
2022-08-22T23:41:52.240Z,101222.06
2022-08-22T23:44:20.117Z,101214.91
2022-08-22T23:46:46.485Z,101218.88
2022-08-22T23:49:13.205Z,101217.28
2022-08-22T23:51:40.472Z,101219.63
2022-08-22T23:54:06.929Z,101216.88
2022-08-22T23:56:35.343Z,101222.06
2022-08-22T23:59:03.867Z,101226.81
